Berville, Michigan
Current Conditions -  °F | °C
As of 5:13 PM on Wednesday 28 Jan 2015 (Local Time) from KD95 Reporting Station
Clear Clear  
Wind Chill: 22°   Ceiling: Unl
Heat Index: 28°   Visibility: 10mi
Dew Point:   Wind: 6mph
Humidity: 34%   Direction: 190°S
Pressure: 30.2"   Gusts: NA
Location:  42.9384°N, 82.9255°W
Report Text: KD95 282213Z AUTO 19005KT 10SM CLR M02/M16 A3020 RMK AO2 T10201161
Loading
Personal Weather Stations






























Interactive Weather Map New forecast layout! Learn more

10-Day Weather Forecast

Advertisements
Track Severe Weather on mobile